createdAt,value
2022-12-15T01:21:01.750Z,-2.18
2022-12-15T01:23:29.330Z,-2.18
2022-12-15T01:25:56.220Z,-2.66
2022-12-15T01:28:24.230Z,-2.56
2022-12-15T01:30:51.981Z,-2.55
2022-12-15T01:33:19.724Z,-2.57
2022-12-15T01:35:55.505Z,-2.61
2022-12-15T01:38:22.479Z,-2.63
2022-12-15T01:40:55.747Z,-2.67
2022-12-15T01:43:25.636Z,-2.73
2022-12-15T01:45:55.313Z,-2.78
2022-12-15T01:48:51.071Z,-2.80
2022-12-15T01:51:26.869Z,-2.85
2022-12-15T01:54:20.187Z,-2.89
2022-12-15T01:56:50.724Z,-3.04
2022-12-15T01:59:23.201Z,-2.97
2022-12-15T02:01:50.467Z,-3.09
2022-12-15T02:04:20.671Z,-3.03
2022-12-15T02:06:47.364Z,-3.02
2022-12-15T02:09:15.116Z,-3.03
2022-12-15T02:12:08.165Z,-3.16
2022-12-15T02:14:44.728Z,-2.94
2022-12-15T02:17:37.241Z,-2.93
2022-12-15T02:20:41.632Z,-2.90
2022-12-15T02:23:33.826Z,-2.89
2022-12-15T02:26:20.172Z,-2.90
2022-12-15T02:29:13.424Z,-2.93
2022-12-15T02:31:50.063Z,-3.02
2022-12-15T02:34:42.402Z,-3.00
2022-12-15T02:37:15.408Z,-3.04
2022-12-15T02:39:42.677Z,-3.08
2022-12-15T02:42:10.854Z,-3.12
2022-12-15T02:44:39.527Z,-3.17
2022-12-15T02:47:18.586Z,-3.18
2022-12-15T02:50:09.717Z,-3.21
2022-12-15T02:52:55.316Z,-3.21
2022-12-15T02:55:37.817Z,-3.29
2022-12-15T02:58:23.839Z,-3.18
2022-12-15T03:00:59.478Z,-3.27
2022-12-15T03:03:29.522Z,-3.19
2022-12-15T03:05:57.671Z,-3.22
2022-12-15T03:08:24.381Z,-3.21
2022-12-15T03:10:53.158Z,-3.25
2022-12-15T03:13:23.107Z,-3.27
2022-12-15T03:15:49.890Z,-3.34
2022-12-15T03:18:17.030Z,-3.32
2022-12-15T03:20:43.660Z,-3.33
2022-12-15T03:23:10.269Z,-3.31
2022-12-15T03:25:37.330Z,-3.40
2022-12-15T03:28:04.436Z,-3.35
2022-12-15T03:30:31.940Z,-3.38
2022-12-15T03:32:58.878Z,-3.33
2022-12-15T03:35:25.525Z,-3.44
2022-12-15T03:37:52.163Z,-3.35
2022-12-15T03:40:19.133Z,-3.37
2022-12-15T03:42:48.700Z,-3.47
2022-12-15T03:45:23.224Z,-3.41
2022-12-15T03:47:50.937Z,-3.43
2022-12-15T03:50:20.937Z,-3.45
2022-12-15T03:52:52.572Z,-3.48
2022-12-15T03:55:20.931Z,-3.50
2022-12-15T03:57:47.722Z,-3.50
2022-12-15T04:00:15.312Z,-3.53
2022-12-15T04:02:43.170Z,-3.51
2022-12-15T04:05:17.070Z,-3.62
2022-12-15T04:07:44.004Z,-3.67
2022-12-15T04:10:12.197Z,-3.62
2022-12-15T04:12:42.259Z,-3.63
2022-12-15T04:15:11.119Z,-3.64
2022-12-15T04:17:38.715Z,-3.70
2022-12-15T04:20:09.901Z,-3.65
2022-12-15T04:22:44.454Z,-3.65
2022-12-15T04:25:32.792Z,-3.66
2022-12-15T04:28:18.788Z,-3.64
2022-12-15T04:31:07.687Z,-3.73
2022-12-15T04:33:54.005Z,-3.62
2022-12-15T04:36:39.873Z,-3.59
2022-12-15T04:39:25.063Z,-3.53
2022-12-15T04:42:12.851Z,-3.52
2022-12-15T04:44:58.837Z,-3.49
2022-12-15T04:47:44.213Z,-3.42
2022-12-15T04:50:30.100Z,-3.39
2022-12-15T04:53:26.117Z,-3.35
2022-12-15T04:56:18.003Z,-3.34
2022-12-15T04:59:04.414Z,-3.30
2022-12-15T05:01:50.675Z,-3.34
2022-12-15T05:04:36.268Z,-3.28
2022-12-15T05:07:22.737Z,-3.27
2022-12-15T05:10:14.332Z,-3.26
2022-12-15T05:13:00.539Z,-3.26
2022-12-15T05:15:46.128Z,-3.24
2022-12-15T05:18:31.410Z,-3.34
2022-12-15T05:21:18.267Z,-3.34
2022-12-15T05:24:03.743Z,-3.26
2022-12-15T05:26:52.660Z,-3.25
2022-12-15T05:29:39.716Z,-3.23
2022-12-15T05:32:07.834Z,-3.25
2022-12-15T05:34:36.273Z,-3.21
2022-12-15T05:37:05.014Z,-3.22
2022-12-15T05:39:31.767Z,-3.24
2022-12-15T05:41:58.803Z,-3.23
2022-12-15T05:44:26.074Z,-3.25
2022-12-15T05:46:53.002Z,-3.22
2022-12-15T05:49:20.813Z,-3.23
2022-12-15T05:51:48.152Z,-3.23
2022-12-15T05:54:17.854Z,-3.23
2022-12-15T05:56:45.502Z,-3.21
2022-12-15T05:59:12.461Z,-3.19
2022-12-15T06:01:39.295Z,-3.19
2022-12-15T06:04:07.443Z,-3.19
2022-12-15T06:06:34.090Z,-3.26
2022-12-15T06:09:00.727Z,-3.18
2022-12-15T06:11:27.930Z,-3.25
2022-12-15T06:13:55.483Z,-3.14
2022-12-15T06:16:24.561Z,-3.12
2022-12-15T06:18:55.580Z,-3.09
2022-12-15T06:21:24.942Z,-3.06
2022-12-15T06:23:52.873Z,-3.04
2022-12-15T06:26:24.008Z,-3.03
2022-12-15T06:28:51.461Z,-2.98
2022-12-15T06:31:22.610Z,-2.95
2022-12-15T06:34:00.881Z,-2.97
2022-12-15T06:36:28.726Z,-2.95
2022-12-15T06:38:58.880Z,-2.97
2022-12-15T06:41:25.534Z,-2.93
2022-12-15T06:43:55.766Z,-2.90
2022-12-15T06:46:23.941Z,-2.88
2022-12-15T06:48:50.776Z,-2.85
2022-12-15T06:51:18.279Z,-2.93
2022-12-15T06:53:54.225Z,-2.80
2022-12-15T06:56:28.817Z,-2.79
2022-12-15T06:58:59.334Z,-2.82
2022-12-15T07:01:26.617Z,-2.72
2022-12-15T07:03:54.520Z,-2.70
2022-12-15T07:06:21.602Z,-2.70
2022-12-15T07:08:53.919Z,-2.69
2022-12-15T07:11:21.444Z,-2.70
2022-12-15T07:13:50.130Z,-2.68
2022-12-15T07:16:17.665Z,-2.76
2022-12-15T07:18:44.642Z,-2.75
2022-12-15T07:21:11.591Z,-2.66
2022-12-15T10:36:16.031Z,-0.32
2022-12-15T10:41:34.836Z,-0.73
2022-12-15T10:44:02.763Z,-0.71
2022-12-15T10:46:31.850Z,-0.73
2022-12-15T10:49:07.695Z,-0.73
2022-12-15T10:51:44.837Z,-0.73
2022-12-15T10:54:14.159Z,-0.78
2022-12-15T10:56:55.716Z,-0.84
2022-12-15T10:59:31.840Z,-0.74
2022-12-15T11:02:36.632Z,-0.82
2022-12-15T11:05:16.019Z,-0.75
2022-12-15T11:07:46.196Z,-0.75
2022-12-15T11:10:28.028Z,-0.74
2022-12-15T11:13:00.246Z,-0.73
2022-12-15T11:15:39.212Z,-0.73
2022-12-15T11:18:25.396Z,-0.70
2022-12-15T11:21:19.267Z,-0.70
2022-12-15T11:24:09.590Z,-0.69
2022-12-15T11:26:43.365Z,-0.69
2022-12-15T11:29:42.928Z,-0.77
2022-12-15T11:32:12.827Z,-0.67
2022-12-15T11:34:44.465Z,-0.63
2022-12-15T11:37:20.070Z,-0.62
2022-12-15T11:40:05.310Z,-0.62
2022-12-15T11:43:23.271Z,-0.60
2022-12-15T11:46:05.341Z,-0.58
2022-12-15T11:49:19.619Z,-0.66
2022-12-15T11:51:57.822Z,-0.55
2022-12-15T11:54:30.560Z,-0.63
2022-12-15T11:57:26.288Z,-0.50
2022-12-15T12:00:18.231Z,-0.50
2022-12-15T12:03:04.293Z,-0.49
2022-12-15T12:06:07.555Z,-0.46
2022-12-15T12:08:43.528Z,-0.46
2022-12-15T12:11:16.994Z,-0.42
2022-12-15T12:13:50.879Z,-0.41
2022-12-15T12:16:42.172Z,-0.40
2022-12-15T12:19:27.910Z,-0.37
2022-12-15T12:22:07.109Z,-0.38
2022-12-15T12:24:43.762Z,-0.34
2022-12-15T12:27:50.293Z,-0.36
2022-12-15T12:30:21.256Z,-0.32
2022-12-15T12:33:26.454Z,-0.39
2022-12-15T12:35:59.005Z,-0.30
2022-12-15T12:38:39.557Z,-0.29
2022-12-15T12:41:09.865Z,-0.29
2022-12-15T12:43:41.991Z,-0.28
2022-12-15T12:46:16.327Z,-0.27
2022-12-15T12:48:51.915Z,-0.27
2022-12-15T12:51:35.232Z,-0.26
2022-12-15T12:54:22.251Z,-0.26
2022-12-15T12:56:50.492Z,-0.24
2022-12-15T12:59:29.729Z,-0.23
2022-12-15T13:02:11.199Z,-0.22
2022-12-15T13:04:40.441Z,-0.21
2022-12-15T13:07:36.354Z,-0.21
2022-12-15T13:10:09.288Z,-0.22
2022-12-15T13:12:53.787Z,-0.21
2022-12-15T13:15:27.059Z,-0.22
2022-12-15T13:18:06.542Z,-0.21
2022-12-15T13:20:36.663Z,-0.21
2022-12-15T13:23:22.340Z,-0.21
2022-12-15T13:25:57.949Z,-0.20
2022-12-15T13:28:45.727Z,-0.19
2022-12-15T13:31:19.342Z,-0.18
2022-12-15T13:33:49.291Z,-0.19
2022-12-15T13:36:38.368Z,-0.20
2022-12-15T13:39:12.362Z,-0.21
2022-12-15T13:42:07.472Z,-0.22
2022-12-15T13:44:40.908Z,-0.22
2022-12-15T13:47:15.562Z,-0.23
2022-12-15T13:53:17.444Z,-0.33
2022-12-15T13:55:38.802Z,-0.24
2022-12-15T13:58:16.758Z,-0.33
2022-12-15T14:00:55.699Z,-0.36
2022-12-15T14:03:24.197Z,-0.25
2022-12-15T14:05:58.779Z,-0.25
2022-12-15T14:08:29.880Z,-0.27
2022-12-15T14:10:58.941Z,-0.24
2022-12-15T14:13:30.566Z,-0.27
2022-12-15T14:16:16.798Z,-0.23
2022-12-15T14:18:44.894Z,-0.23
2022-12-15T14:21:21.697Z,-0.24
2022-12-15T14:26:35.587Z,-0.27
2022-12-15T14:29:06.505Z,-0.23
2022-12-15T14:31:33.767Z,-0.21
2022-12-15T14:34:06.476Z,-0.21
2022-12-15T14:36:34.314Z,-0.22
2022-12-15T14:39:04.761Z,-0.27
2022-12-15T14:41:43.822Z,-0.20
2022-12-15T14:44:38.275Z,-0.21
2022-12-15T14:47:29.761Z,-0.22
2022-12-15T14:49:58.330Z,-0.20
2022-12-15T14:52:34.152Z,-0.19
2022-12-15T14:55:04.230Z,-0.20
2022-12-15T14:57:47.777Z,-0.18
2022-12-15T15:00:31.110Z,-0.24
2022-12-15T15:03:07.606Z,-0.23
2022-12-15T15:03:09.037Z,-0.32
2022-12-15T15:03:18.987Z,-0.15
2022-12-15T15:05:51.534Z,-0.18
2022-12-15T15:08:36.633Z,-0.15
2022-12-15T15:11:29.270Z,-0.14
2022-12-15T15:13:59.452Z,-0.13
2022-12-15T15:16:26.790Z,-0.11
2022-12-15T15:18:56.376Z,-0.10
2022-12-15T15:21:26.582Z,-0.09
2022-12-15T15:24:20.309Z,-0.09
2022-12-15T15:26:47.022Z,-0.08
2022-12-15T15:29:49.820Z,-0.07
2022-12-15T15:32:19.693Z,-0.05
2022-12-15T15:34:47.310Z,-0.04
2022-12-15T15:37:34.215Z,-0.04
2022-12-15T15:40:01.933Z,-0.03
2022-12-15T15:42:32.412Z,-0.11
2022-12-15T15:44:59.537Z,-0.01
2022-12-15T15:47:27.159Z,-0.07
2022-12-15T15:49:56.329Z,-0.09
2022-12-15T15:52:23.112Z,0.00
2022-12-15T15:54:51.812Z,0.01
2022-12-15T15:57:20.980Z,0.02
2022-12-15T15:59:48.017Z,0.02
2022-12-15T16:02:15.479Z,0.03
2022-12-15T16:04:43.980Z,0.02
2022-12-15T16:07:20.471Z,0.01
2022-12-15T16:09:47.459Z,0.04
2022-12-15T19:21:38.206Z,0.98
2022-12-15T19:24:07.607Z,0.98
2022-12-15T19:26:34.362Z,0.61
2022-12-15T19:29:01.186Z,0.62
2022-12-15T19:31:28.148Z,0.61
2022-12-15T19:33:54.854Z,0.62
2022-12-15T19:36:24.262Z,0.61
2022-12-15T19:38:54.942Z,0.52
2022-12-15T19:41:21.946Z,0.58
2022-12-15T19:43:48.643Z,0.60
2022-12-15T19:46:21.418Z,0.49
2022-12-15T19:48:48.418Z,0.56
2022-12-15T19:51:21.085Z,0.51
2022-12-15T19:53:48.908Z,0.55
2022-12-15T19:56:21.892Z,0.55
2022-12-15T19:58:49.124Z,0.50
2022-12-15T20:01:18.525Z,0.55
2022-12-15T20:03:50.723Z,0.55
2022-12-15T20:06:26.466Z,0.56
2022-12-15T20:08:55.903Z,0.55
2022-12-15T20:11:28.832Z,0.53
2022-12-15T20:13:56.485Z,0.43
2022-12-15T20:16:24.176Z,0.52
2022-12-15T20:18:53.139Z,0.53
2022-12-15T20:21:22.725Z,0.46
2022-12-15T20:23:54.503Z,0.56
2022-12-15T20:26:22.855Z,0.53
2022-12-15T20:28:49.514Z,0.53
2022-12-15T20:31:19.527Z,0.54
2022-12-15T20:33:47.603Z,0.55
2022-12-15T20:36:24.516Z,0.53
2022-12-15T20:38:52.707Z,0.52
2022-12-15T20:41:26.132Z,0.52
2022-12-15T20:43:54.638Z,0.54
2022-12-15T20:46:23.799Z,0.46
2022-12-15T20:48:52.096Z,0.54
2022-12-15T20:51:25.017Z,0.54
2022-12-15T20:53:53.572Z,0.55
2022-12-15T20:56:23.597Z,0.51
2022-12-15T20:58:51.493Z,0.53
2022-12-15T21:01:26.152Z,0.44
2022-12-15T21:03:58.151Z,0.53
2022-12-15T21:06:26.489Z,0.55
2022-12-15T21:08:54.431Z,0.48
2022-12-15T21:11:26.975Z,0.55
2022-12-15T21:13:56.646Z,0.46
2022-12-15T21:16:28.906Z,0.49
2022-12-15T21:19:20.196Z,0.57
2022-12-15T21:21:48.844Z,0.55
2022-12-15T21:24:24.787Z,0.52
2022-12-15T21:26:52.022Z,0.42
2022-12-15T21:29:23.658Z,0.51
2022-12-15T21:31:50.601Z,0.51
2022-12-15T21:34:17.791Z,0.49
2022-12-15T21:36:47.523Z,0.50
2022-12-15T21:39:29.474Z,0.46
2022-12-15T21:41:59.944Z,0.43
2022-12-15T21:44:26.782Z,0.41
2022-12-15T21:46:53.413Z,0.37
2022-12-15T21:49:21.740Z,0.34
2022-12-15T21:51:56.631Z,0.34
2022-12-15T21:54:30.671Z,0.32
2022-12-15T21:56:59.072Z,0.33
2022-12-15T21:59:31.477Z,0.39
2022-12-15T22:01:59.800Z,0.41
2022-12-15T22:04:31.354Z,0.42
2022-12-15T22:06:58.193Z,0.34
2022-12-15T22:09:24.945Z,0.45
2022-12-15T22:11:54.199Z,0.45
2022-12-15T22:14:31.669Z,0.45
2022-12-15T22:17:00.116Z,0.37
2022-12-15T22:19:27.585Z,0.35
2022-12-15T22:21:54.237Z,0.43
2022-12-15T22:24:22.104Z,0.42
2022-12-15T22:26:49.051Z,0.42
2022-12-15T22:29:21.657Z,0.40
2022-12-15T22:31:50.285Z,0.44
2022-12-15T22:34:20.066Z,0.35
2022-12-15T22:36:47.145Z,0.46
2022-12-15T22:39:15.104Z,0.46
2022-12-15T22:41:50.970Z,0.45
2022-12-15T22:44:22.489Z,0.47
2022-12-15T22:46:50.911Z,0.47
2022-12-15T22:49:24.001Z,0.44
2022-12-15T22:51:51.246Z,0.43
2022-12-15T22:54:20.952Z,0.45
2022-12-15T22:56:50.594Z,0.44
2022-12-15T22:59:24.678Z,0.43
2022-12-15T23:01:51.849Z,0.41
2022-12-15T23:04:18.709Z,0.40
2022-12-15T23:06:45.417Z,0.37
2022-12-15T23:09:12.393Z,0.31
2022-12-15T23:11:39.292Z,0.28
2022-12-15T23:14:08.737Z,0.25
2022-12-15T23:16:36.889Z,0.22
2022-12-15T23:19:04.553Z,0.17
2022-12-15T23:21:32.338Z,0.19
2022-12-15T23:23:59.680Z,0.13
2022-12-15T23:26:27.137Z,0.12
2022-12-15T23:28:55.130Z,-0.01
2022-12-15T23:31:22.943Z,0.05
2022-12-15T23:33:52.167Z,-0.01
2022-12-15T23:36:19.665Z,-0.01
2022-12-15T23:38:46.709Z,0.05
2022-12-15T23:41:17.506Z,0.11
2022-12-15T23:43:44.569Z,0.11
2022-12-15T23:46:11.733Z,0.13
2022-12-15T23:48:40.676Z,0.15
2022-12-15T23:51:15.369Z,0.15
2022-12-15T23:53:43.527Z,0.17
2022-12-15T23:56:11.430Z,0.19
2022-12-15T23:58:39.594Z,0.19
